sensor_id;sensor_type;location;lat;lon;timestamp;P1;durP1;ratioP1;P2;durP2;ratioP2
70008;SDS011;59542;37.950;-122.338;2023-07-29T00:00:41;10.63;;;4.15;;
70008;SDS011;59542;37.950;-122.338;2023-07-29T00:03:08;14.38;;;3.75;;
70008;SDS011;59542;37.950;-122.338;2023-07-29T00:05:36;11.88;;;3.17;;
70008;SDS011;59542;37.950;-122.338;2023-07-29T00:08:03;10.02;;;3.40;;
70008;SDS011;59542;37.950;-122.338;2023-07-29T00:10:32;11.02;;;3.95;;
70008;SDS011;59542;37.950;-122.338;2023-07-29T00:13:02;14.68;;;4.25;;
70008;SDS011;59542;37.950;-122.338;2023-07-29T00:15:29;11.73;;;3.90;;
70008;SDS011;59542;37.950;-122.338;2023-07-29T00:17:55;12.82;;;3.60;;
70008;SDS011;59542;37.950;-122.338;2023-07-29T00:20:21;17.10;;;4.00;;
70008;SDS011;59542;37.950;-122.338;2023-07-29T00:22:48;13.73;;;4.03;;
70008;SDS011;59542;37.950;-122.338;2023-07-29T00:25:19;13.18;;;4.28;;
70008;SDS011;59542;37.950;-122.338;2023-07-29T00:27:47;11.90;;;3.97;;
70008;SDS011;59542;37.950;-122.338;2023-07-29T00:30:13;12.82;;;3.88;;
70008;SDS011;59542;37.950;-122.338;2023-07-29T00:32:39;11.07;;;4.05;;
70008;SDS011;59542;37.950;-122.338;2023-07-29T00:35:06;9.32;;;4.60;;
70008;SDS011;59542;37.950;-122.338;2023-07-29T00:37:32;15.40;;;4.32;;
70008;SDS011;59542;37.950;-122.338;2023-07-29T00:39:59;14.40;;;4.43;;
70008;SDS011;59542;37.950;-122.338;2023-07-29T00:42:25;10.05;;;3.67;;
70008;SDS011;59542;37.950;-122.338;2023-07-29T00:44:51;15.90;;;4.40;;
70008;SDS011;59542;37.950;-122.338;2023-07-29T00:47:17;12.25;;;4.07;;
70008;SDS011;59542;37.950;-122.338;2023-07-29T00:49:46;19.25;;;5.43;;
70008;SDS011;59542;37.950;-122.338;2023-07-29T00:52:12;14.32;;;4.57;;
70008;SDS011;59542;37.950;-122.338;2023-07-29T00:54:39;13.85;;;4.35;;
70008;SDS011;59542;37.950;-122.338;2023-07-29T00:57:06;14.35;;;4.05;;
70008;SDS011;59542;37.950;-122.338;2023-07-29T00:59:35;13.85;;;4.88;;
70008;SDS011;59542;37.950;-122.338;2023-07-29T01:02:02;11.43;;;4.22;;
70008;SDS011;59542;37.950;-122.338;2023-07-29T01:04:28;15.10;;;4.90;;
70008;SDS011;59542;37.950;-122.338;2023-07-29T01:17:40;15.48;;;4.60;;
70008;SDS011;59542;37.950;-122.338;2023-07-29T01:20:29;21.50;;;5.65;;
70008;SDS011;59542;37.950;-122.338;2023-07-29T01:22:59;18.67;;;4.65;;
70008;SDS011;59542;37.950;-122.338;2023-07-29T01:25:25;18.63;;;5.03;;
70008;SDS011;59542;37.950;-122.338;2023-07-29T01:27:52;13.52;;;4.57;;
70008;SDS011;59542;37.950;-122.338;2023-07-29T01:30:21;16.35;;;4.97;;
70008;SDS011;59542;37.950;-122.338;2023-07-29T01:32:53;18.88;;;4.70;;
70008;SDS011;59542;37.950;-122.338;2023-07-29T01:35:26;17.27;;;4.82;;
70008;SDS011;59542;37.950;-122.338;2023-07-29T01:37:55;17.15;;;4.97;;
70008;SDS011;59542;37.950;-122.338;2023-07-29T01:40:26;14.07;;;5.18;;
70008;SDS011;59542;37.950;-122.338;2023-07-29T01:42:53;14.95;;;5.07;;
70008;SDS011;59542;37.950;-122.338;2023-07-29T01:45:23;12.18;;;4.15;;
70008;SDS011;59542;37.950;-122.338;2023-07-29T01:47:51;18.15;;;5.38;;
70008;SDS011;59542;37.950;-122.338;2023-07-29T01:50:18;21.85;;;5.45;;
70008;SDS011;59542;37.950;-122.338;2023-07-29T01:52:44;13.68;;;4.88;;
70008;SDS011;59542;37.950;-122.338;2023-07-29T01:55:10;17.75;;;5.38;;
70008;SDS011;59542;37.950;-122.338;2023-07-29T01:57:36;13.95;;;4.90;;
70008;SDS011;59542;37.950;-122.338;2023-07-29T02:00:03;13.45;;;4.55;;
70008;SDS011;59542;37.950;-122.338;2023-07-29T02:02:30;15.93;;;4.25;;
70008;SDS011;59542;37.950;-122.338;2023-07-29T02:04:56;14.80;;;4.35;;
70008;SDS011;59542;37.950;-122.338;2023-07-29T02:07:22;14.20;;;4.32;;
70008;SDS011;59542;37.950;-122.338;2023-07-29T02:09:51;12.73;;;4.30;;
70008;SDS011;59542;37.950;-122.338;2023-07-29T02:12:18;15.65;;;4.47;;
70008;SDS011;59542;37.950;-122.338;2023-07-29T02:14:45;16.05;;;3.80;;
70008;SDS011;59542;37.950;-122.338;2023-07-29T02:17:11;18.20;;;4.57;;
70008;SDS011;59542;37.950;-122.338;2023-07-29T02:19:37;14.35;;;4.68;;
70008;SDS011;59542;37.950;-122.338;2023-07-29T02:22:03;14.15;;;3.97;;
70008;SDS011;59542;37.950;-122.338;2023-07-29T02:24:30;15.55;;;4.70;;
70008;SDS011;59542;37.950;-122.338;2023-07-29T02:26:56;13.35;;;4.47;;
70008;SDS011;59542;37.950;-122.338;2023-07-29T02:29:22;13.57;;;4.05;;
70008;SDS011;59542;37.950;-122.338;2023-07-29T02:31:50;15.05;;;4.80;;
70008;SDS011;59542;37.950;-122.338;2023-07-29T02:34:16;16.70;;;5.07;;
70008;SDS011;59542;37.950;-122.338;2023-07-29T02:36:42;13.80;;;4.25;;
70008;SDS011;59542;37.950;-122.338;2023-07-29T02:39:10;15.63;;;4.63;;
70008;SDS011;59542;37.950;-122.338;2023-07-29T02:41:37;9.27;;;4.28;;
70008;SDS011;59542;37.950;-122.338;2023-07-29T02:44:04;13.27;;;4.68;;
70008;SDS011;59542;37.950;-122.338;2023-07-29T02:46:31;18.70;;;5.35;;
70008;SDS011;59542;37.950;-122.338;2023-07-29T02:48:57;16.85;;;5.22;;
70008;SDS011;59542;37.950;-122.338;2023-07-29T02:51:24;16.55;;;4.95;;
70008;SDS011;59542;37.950;-122.338;2023-07-29T02:53:50;14.95;;;5.13;;
70008;SDS011;59542;37.950;-122.338;2023-07-29T02:56:17;17.77;;;5.20;;
70008;SDS011;59542;37.950;-122.338;2023-07-29T02:58:43;22.05;;;5.10;;
70008;SDS011;59542;37.950;-122.338;2023-07-29T03:01:10;20.02;;;5.75;;
70008;SDS011;59542;37.950;-122.338;2023-07-29T03:03:36;15.75;;;5.15;;
70008;SDS011;59542;37.950;-122.338;2023-07-29T03:06:03;15.20;;;5.28;;
70008;SDS011;59542;37.950;-122.338;2023-07-29T03:08:31;20.77;;;6.30;;
70008;SDS011;59542;37.950;-122.338;2023-07-29T03:10:57;22.48;;;6.47;;
70008;SDS011;59542;37.950;-122.338;2023-07-29T03:13:24;24.90;;;6.03;;
70008;SDS011;59542;37.950;-122.338;2023-07-29T03:15:50;22.75;;;6.38;;
70008;SDS011;59542;37.950;-122.338;2023-07-29T03:18:17;18.98;;;6.28;;
70008;SDS011;59542;37.950;-122.338;2023-07-29T03:20:43;14.40;;;6.20;;
70008;SDS011;59542;37.950;-122.338;2023-07-29T03:23:09;23.38;;;6.32;;
70008;SDS011;59542;37.950;-122.338;2023-07-29T03:25:35;17.63;;;6.22;;
70008;SDS011;59542;37.950;-122.338;2023-07-29T03:28:02;21.63;;;6.40;;
70008;SDS011;59542;37.950;-122.338;2023-07-29T03:30:28;20.90;;;6.15;;
70008;SDS011;59542;37.950;-122.338;2023-07-29T03:32:54;19.42;;;5.57;;
70008;SDS011;59542;37.950;-122.338;2023-07-29T03:35:21;22.83;;;5.97;;
70008;SDS011;59542;37.950;-122.338;2023-07-29T03:37:47;17.05;;;5.70;;
70008;SDS011;59542;37.950;-122.338;2023-07-29T03:40:13;17.65;;;5.95;;
70008;SDS011;59542;37.950;-122.338;2023-07-29T03:42:39;20.75;;;5.95;;
70008;SDS011;59542;37.950;-122.338;2023-07-29T03:45:06;28.30;;;7.13;;
70008;SDS011;59542;37.950;-122.338;2023-07-29T03:47:32;19.25;;;6.30;;
70008;SDS011;59542;37.950;-122.338;2023-07-29T03:49:58;15.77;;;5.38;;
70008;SDS011;59542;37.950;-122.338;2023-07-29T03:52:25;15.35;;;5.47;;
70008;SDS011;59542;37.950;-122.338;2023-07-29T03:54:51;18.58;;;6.30;;
70008;SDS011;59542;37.950;-122.338;2023-07-29T03:57:17;16.92;;;6.28;;
70008;SDS011;59542;37.950;-122.338;2023-07-29T03:59:43;21.10;;;6.15;;
70008;SDS011;59542;37.950;-122.338;2023-07-29T04:02:10;23.38;;;6.30;;
70008;SDS011;59542;37.950;-122.338;2023-07-29T04:04:36;17.98;;;5.93;;
70008;SDS011;59542;37.950;-122.338;2023-07-29T04:07:02;18.83;;;6.15;;
70008;SDS011;59542;37.950;-122.338;2023-07-29T04:09:29;20.67;;;5.70;;
70008;SDS011;59542;37.950;-122.338;2023-07-29T04:11:55;24.10;;;6.72;;
70008;SDS011;59542;37.950;-122.338;2023-07-29T04:14:21;25.15;;;6.30;;
70008;SDS011;59542;37.950;-122.338;2023-07-29T04:16:47;23.92;;;5.93;;
70008;SDS011;59542;37.950;-122.338;2023-07-29T04:19:14;22.17;;;6.32;;
70008;SDS011;59542;37.950;-122.338;2023-07-29T04:21:40;20.65;;;6.35;;
70008;SDS011;59542;37.950;-122.338;2023-07-29T04:24:07;20.55;;;6.60;;
70008;SDS011;59542;37.950;-122.338;2023-07-29T04:26:33;16.75;;;6.13;;
70008;SDS011;59542;37.950;-122.338;2023-07-29T04:28:59;20.15;;;6.18;;
70008;SDS011;59542;37.950;-122.338;2023-07-29T04:31:25;24.95;;;6.43;;
70008;SDS011;59542;37.950;-122.338;2023-07-29T04:33:52;23.42;;;6.60;;
70008;SDS011;59542;37.950;-122.338;2023-07-29T04:36:18;15.10;;;5.15;;
70008;SDS011;59542;37.950;-122.338;2023-07-29T04:38:44;20.63;;;5.97;;
70008;SDS011;59542;37.950;-122.338;2023-07-29T04:41:10;17.17;;;5.63;;
70008;SDS011;59542;37.950;-122.338;2023-07-29T04:43:37;17.42;;;6.10;;
70008;SDS011;59542;37.950;-122.338;2023-07-29T04:46:05;17.63;;;6.32;;
70008;SDS011;59542;37.950;-122.338;2023-07-29T04:48:33;17.48;;;5.97;;
70008;SDS011;59542;37.950;-122.338;2023-07-29T04:51:00;18.02;;;5.97;;
70008;SDS011;59542;37.950;-122.338;2023-07-29T04:53:26;18.48;;;5.93;;
70008;SDS011;59542;37.950;-122.338;2023-07-29T04:55:52;23.45;;;6.32;;
70008;SDS011;59542;37.950;-122.338;2023-07-29T04:58:18;22.70;;;6.68;;
70008;SDS011;59542;37.950;-122.338;2023-07-29T05:00:46;28.00;;;6.72;;
70008;SDS011;59542;37.950;-122.338;2023-07-29T05:03:13;25.60;;;6.07;;
70008;SDS011;59542;37.950;-122.338;2023-07-29T05:05:39;21.77;;;6.63;;
70008;SDS011;59542;37.950;-122.338;2023-07-29T05:08:05;24.27;;;6.85;;
70008;SDS011;59542;37.950;-122.338;2023-07-29T05:10:31;20.85;;;6.38;;
70008;SDS011;59542;37.950;-122.338;2023-07-29T05:12:58;20.40;;;6.93;;
70008;SDS011;59542;37.950;-122.338;2023-07-29T05:15:24;17.35;;;5.65;;
70008;SDS011;59542;37.950;-122.338;2023-07-29T05:17:50;21.30;;;6.55;;
70008;SDS011;59542;37.950;-122.338;2023-07-29T05:20:16;18.45;;;7.05;;
70008;SDS011;59542;37.950;-122.338;2023-07-29T05:22:43;24.38;;;7.63;;
70008;SDS011;59542;37.950;-122.338;2023-07-29T05:25:09;20.92;;;6.57;;
70008;SDS011;59542;37.950;-122.338;2023-07-29T05:27:35;16.77;;;5.93;;
70008;SDS011;59542;37.950;-122.338;2023-07-29T05:30:01;25.00;;;6.38;;
70008;SDS011;59542;37.950;-122.338;2023-07-29T05:32:28;24.67;;;6.32;;
70008;SDS011;59542;37.950;-122.338;2023-07-29T05:34:55;25.40;;;6.50;;
70008;SDS011;59542;37.950;-122.338;2023-07-29T05:37:21;18.65;;;6.63;;
70008;SDS011;59542;37.950;-122.338;2023-07-29T05:39:47;25.23;;;6.97;;
70008;SDS011;59542;37.950;-122.338;2023-07-29T05:42:13;24.73;;;6.20;;
70008;SDS011;59542;37.950;-122.338;2023-07-29T05:44:40;15.73;;;6.05;;
70008;SDS011;59542;37.950;-122.338;2023-07-29T05:47:06;24.45;;;7.47;;
70008;SDS011;59542;37.950;-122.338;2023-07-29T05:49:32;16.80;;;6.05;;
70008;SDS011;59542;37.950;-122.338;2023-07-29T05:51:58;17.02;;;5.70;;
70008;SDS011;59542;37.950;-122.338;2023-07-29T05:54:25;24.15;;;6.60;;
70008;SDS011;59542;37.950;-122.338;2023-07-29T05:56:51;21.23;;;6.60;;
70008;SDS011;59542;37.950;-122.338;2023-07-29T05:59:17;19.52;;;5.55;;
70008;SDS011;59542;37.950;-122.338;2023-07-29T06:01:43;18.17;;;6.00;;
70008;SDS011;59542;37.950;-122.338;2023-07-29T06:04:10;19.27;;;6.40;;
70008;SDS011;59542;37.950;-122.338;2023-07-29T06:06:36;20.73;;;7.00;;
70008;SDS011;59542;37.950;-122.338;2023-07-29T06:09:02;14.88;;;5.85;;
70008;SDS011;59542;37.950;-122.338;2023-07-29T06:11:28;18.92;;;5.57;;
70008;SDS011;59542;37.950;-122.338;2023-07-29T06:13:58;17.45;;;5.88;;
70008;SDS011;59542;37.950;-122.338;2023-07-29T06:16:24;17.25;;;6.00;;
70008;SDS011;59542;37.950;-122.338;2023-07-29T06:18:50;16.98;;;5.25;;
70008;SDS011;59542;37.950;-122.338;2023-07-29T06:21:18;21.10;;;6.15;;
70008;SDS011;59542;37.950;-122.338;2023-07-29T06:23:45;15.85;;;5.70;;
70008;SDS011;59542;37.950;-122.338;2023-07-29T06:26:12;16.30;;;6.10;;
70008;SDS011;59542;37.950;-122.338;2023-07-29T06:28:38;20.58;;;5.82;;
70008;SDS011;59542;37.950;-122.338;2023-07-29T06:31:04;20.20;;;6.25;;
70008;SDS011;59542;37.950;-122.338;2023-07-29T06:33:30;18.25;;;5.55;;
70008;SDS011;59542;37.950;-122.338;2023-07-29T06:35:57;17.15;;;6.30;;
70008;SDS011;59542;37.950;-122.338;2023-07-29T06:38:23;18.30;;;5.97;;
70008;SDS011;59542;37.950;-122.338;2023-07-29T06:40:50;17.55;;;6.03;;
70008;SDS011;59542;37.950;-122.338;2023-07-29T06:43:16;17.40;;;5.82;;
70008;SDS011;59542;37.950;-122.338;2023-07-29T06:45:43;14.77;;;5.63;;
70008;SDS011;59542;37.950;-122.338;2023-07-29T06:48:09;19.95;;;5.65;;
70008;SDS011;59542;37.950;-122.338;2023-07-29T06:50:35;20.75;;;6.53;;
70008;SDS011;59542;37.950;-122.338;2023-07-29T06:53:02;21.55;;;6.82;;
70008;SDS011;59542;37.950;-122.338;2023-07-29T06:55:29;22.92;;;6.38;;
70008;SDS011;59542;37.950;-122.338;2023-07-29T06:57:55;18.00;;;6.10;;
70008;SDS011;59542;37.950;-122.338;2023-07-29T07:00:21;16.83;;;6.45;;
70008;SDS011;59542;37.950;-122.338;2023-07-29T07:02:48;18.60;;;6.18;;
70008;SDS011;59542;37.950;-122.338;2023-07-29T07:05:14;20.13;;;6.28;;
70008;SDS011;59542;37.950;-122.338;2023-07-29T07:07:40;22.00;;;6.85;;
70008;SDS011;59542;37.950;-122.338;2023-07-29T07:10:07;25.65;;;7.35;;
70008;SDS011;59542;37.950;-122.338;2023-07-29T07:12:34;23.50;;;7.60;;
70008;SDS011;59542;37.950;-122.338;2023-07-29T07:15:00;22.15;;;7.22;;
70008;SDS011;59542;37.950;-122.338;2023-07-29T07:17:27;25.83;;;7.00;;
70008;SDS011;59542;37.950;-122.338;2023-07-29T07:19:53;19.85;;;6.85;;
70008;SDS011;59542;37.950;-122.338;2023-07-29T07:22:19;20.50;;;7.38;;
70008;SDS011;59542;37.950;-122.338;2023-07-29T07:24:45;18.67;;;6.38;;
70008;SDS011;59542;37.950;-122.338;2023-07-29T07:27:12;22.15;;;6.80;;
70008;SDS011;59542;37.950;-122.338;2023-07-29T07:29:38;20.60;;;6.85;;
70008;SDS011;59542;37.950;-122.338;2023-07-29T07:32:05;24.85;;;7.13;;
70008;SDS011;59542;37.950;-122.338;2023-07-29T07:34:31;30.23;;;7.43;;
70008;SDS011;59542;37.950;-122.338;2023-07-29T07:36:58;32.42;;;7.68;;
70008;SDS011;59542;37.950;-122.338;2023-07-29T07:39:25;23.85;;;6.50;;
70008;SDS011;59542;37.950;-122.338;2023-07-29T07:41:52;19.15;;;7.10;;
70008;SDS011;59542;37.950;-122.338;2023-07-29T07:44:18;19.33;;;7.72;;
70008;SDS011;59542;37.950;-122.338;2023-07-29T07:46:45;22.95;;;7.28;;
70008;SDS011;59542;37.950;-122.338;2023-07-29T07:49:11;16.95;;;7.20;;
70008;SDS011;59542;37.950;-122.338;2023-07-29T07:51:38;14.82;;;6.55;;
70008;SDS011;59542;37.950;-122.338;2023-07-29T07:54:05;13.52;;;6.40;;
70008;SDS011;59542;37.950;-122.338;2023-07-29T07:56:31;19.10;;;6.85;;
70008;SDS011;59542;37.950;-122.338;2023-07-29T07:58:58;14.25;;;7.13;;
70008;SDS011;59542;37.950;-122.338;2023-07-29T08:01:24;14.63;;;6.68;;
70008;SDS011;59542;37.950;-122.338;2023-07-29T08:03:50;16.95;;;6.88;;
70008;SDS011;59542;37.950;-122.338;2023-07-29T08:06:16;16.52;;;7.65;;
70008;SDS011;59542;37.950;-122.338;2023-07-29T08:08:43;15.98;;;6.82;;
70008;SDS011;59542;37.950;-122.338;2023-07-29T08:11:09;16.08;;;6.75;;
70008;SDS011;59542;37.950;-122.338;2023-07-29T08:13:35;12.73;;;5.88;;
70008;SDS011;59542;37.950;-122.338;2023-07-29T08:16:01;20.33;;;6.35;;
70008;SDS011;59542;37.950;-122.338;2023-07-29T08:18:28;13.27;;;6.10;;
70008;SDS011;59542;37.950;-122.338;2023-07-29T08:20:55;14.32;;;6.85;;
70008;SDS011;59542;37.950;-122.338;2023-07-29T08:23:30;18.75;;;7.97;;
70008;SDS011;59542;37.950;-122.338;2023-07-29T08:25:58;19.98;;;8.05;;
70008;SDS011;59542;37.950;-122.338;2023-07-29T08:28:29;17.38;;;7.30;;
70008;SDS011;59542;37.950;-122.338;2023-07-29T08:30:58;15.77;;;6.75;;
70008;SDS011;59542;37.950;-122.338;2023-07-29T08:33:25;20.85;;;7.65;;
70008;SDS011;59542;37.950;-122.338;2023-07-29T08:35:52;14.93;;;6.38;;
70008;SDS011;59542;37.950;-122.338;2023-07-29T08:38:19;13.15;;;6.82;;
70008;SDS011;59542;37.950;-122.338;2023-07-29T08:40:48;17.60;;;6.80;;
70008;SDS011;59542;37.950;-122.338;2023-07-29T08:43:23;15.80;;;6.75;;
70008;SDS011;59542;37.950;-122.338;2023-07-29T08:45:58;14.30;;;7.22;;
70008;SDS011;59542;37.950;-122.338;2023-07-29T08:48:40;15.68;;;7.28;;
70008;SDS011;59542;37.950;-122.338;2023-07-29T08:51:08;21.40;;;6.43;;
70008;SDS011;59542;37.950;-122.338;2023-07-29T08:53:36;17.23;;;6.75;;
70008;SDS011;59542;37.950;-122.338;2023-07-29T08:56:04;15.07;;;6.97;;
70008;SDS011;59542;37.950;-122.338;2023-07-29T08:58:31;14.68;;;7.13;;
70008;SDS011;59542;37.950;-122.338;2023-07-29T09:00:59;18.20;;;6.90;;
70008;SDS011;59542;37.950;-122.338;2023-07-29T09:03:25;12.95;;;6.47;;
70008;SDS011;59542;37.950;-122.338;2023-07-29T09:05:51;16.92;;;6.70;;
70008;SDS011;59542;37.950;-122.338;2023-07-29T09:08:18;13.30;;;5.95;;
70008;SDS011;59542;37.950;-122.338;2023-07-29T09:10:46;11.85;;;6.43;;
70008;SDS011;59542;37.950;-122.338;2023-07-29T09:13:12;11.52;;;6.25;;
70008;SDS011;59542;37.950;-122.338;2023-07-29T09:15:39;11.98;;;5.88;;
70008;SDS011;59542;37.950;-122.338;2023-07-29T09:18:11;12.52;;;6.40;;
70008;SDS011;59542;37.950;-122.338;2023-07-29T09:20:41;12.18;;;6.50;;
70008;SDS011;59542;37.950;-122.338;2023-07-29T09:23:09;13.65;;;5.90;;
70008;SDS011;59542;37.950;-122.338;2023-07-29T09:25:36;12.82;;;6.18;;
70008;SDS011;59542;37.950;-122.338;2023-07-29T09:28:12;13.32;;;6.43;;
70008;SDS011;59542;37.950;-122.338;2023-07-29T09:30:40;15.52;;;6.32;;
70008;SDS011;59542;37.950;-122.338;2023-07-29T09:33:11;13.65;;;7.05;;
70008;SDS011;59542;37.950;-122.338;2023-07-29T09:35:37;13.77;;;6.65;;
70008;SDS011;59542;37.950;-122.338;2023-07-29T09:38:04;13.88;;;6.78;;
70008;SDS011;59542;37.950;-122.338;2023-07-29T09:40:35;13.15;;;5.70;;
70008;SDS011;59542;37.950;-122.338;2023-07-29T09:43:03;8.20;;;5.65;;
70008;SDS011;59542;37.950;-122.338;2023-07-29T09:45:32;16.10;;;6.70;;
70008;SDS011;59542;37.950;-122.338;2023-07-29T09:48:00;12.82;;;5.78;;
70008;SDS011;59542;37.950;-122.338;2023-07-29T09:50:28;11.60;;;5.78;;
70008;SDS011;59542;37.950;-122.338;2023-07-29T09:52:55;11.55;;;6.30;;
70008;SDS011;59542;37.950;-122.338;2023-07-29T09:55:25;10.70;;;5.65;;
70008;SDS011;59542;37.950;-122.338;2023-07-29T09:57:59;10.55;;;6.25;;
70008;SDS011;59542;37.950;-122.338;2023-07-29T10:00:29;10.50;;;5.95;;
70008;SDS011;59542;37.950;-122.338;2023-07-29T10:02:57;12.60;;;6.57;;
70008;SDS011;59542;37.950;-122.338;2023-07-29T10:05:27;15.52;;;6.75;;
70008;SDS011;59542;37.950;-122.338;2023-07-29T10:07:54;10.85;;;6.15;;
70008;SDS011;59542;37.950;-122.338;2023-07-29T10:10:21;9.55;;;5.43;;
70008;SDS011;59542;37.950;-122.338;2023-07-29T10:12:48;11.98;;;7.03;;
70008;SDS011;59542;37.950;-122.338;2023-07-29T10:15:15;10.15;;;5.85;;
70008;SDS011;59542;37.950;-122.338;2023-07-29T10:17:42;9.90;;;5.50;;
70008;SDS011;59542;37.950;-122.338;2023-07-29T10:20:11;8.77;;;6.00;;
70008;SDS011;59542;37.950;-122.338;2023-07-29T10:22:38;10.93;;;6.53;;
70008;SDS011;59542;37.950;-122.338;2023-07-29T10:27:47;8.18;;;5.25;;
70008;SDS011;59542;37.950;-122.338;2023-07-29T10:30:14;10.32;;;6.28;;
70008;SDS011;59542;37.950;-122.338;2023-07-29T10:32:44;8.73;;;5.90;;
70008;SDS011;59542;37.950;-122.338;2023-07-29T10:35:17;9.63;;;6.05;;
70008;SDS011;59542;37.950;-122.338;2023-07-29T10:37:43;9.73;;;6.20;;
70008;SDS011;59542;37.950;-122.338;2023-07-29T10:40:11;15.38;;;7.32;;
70008;SDS011;59542;37.950;-122.338;2023-07-29T10:42:58;9.77;;;6.63;;
70008;SDS011;59542;37.950;-122.338;2023-07-29T10:45:39;9.82;;;5.97;;
70008;SDS011;59542;37.950;-122.338;2023-07-29T10:48:09;7.88;;;6.32;;
70008;SDS011;59542;37.950;-122.338;2023-07-29T10:50:36;9.93;;;6.40;;
70008;SDS011;59542;37.950;-122.338;2023-07-29T10:53:03;16.17;;;7.22;;
70008;SDS011;59542;37.950;-122.338;2023-07-29T10:55:32;11.23;;;6.07;;
70008;SDS011;59542;37.950;-122.338;2023-07-29T10:58:05;10.93;;;5.65;;
70008;SDS011;59542;37.950;-122.338;2023-07-29T11:00:39;11.68;;;6.32;;
70008;SDS011;59542;37.950;-122.338;2023-07-29T11:03:07;8.73;;;5.43;;
70008;SDS011;59542;37.950;-122.338;2023-07-29T11:05:45;8.85;;;5.90;;
70008;SDS011;59542;37.950;-122.338;2023-07-29T11:08:36;7.78;;;5.50;;
70008;SDS011;59542;37.950;-122.338;2023-07-29T11:13:32;7.97;;;4.88;;
70008;SDS011;59542;37.950;-122.338;2023-07-29T11:16:01;10.82;;;6.03;;
70008;SDS011;59542;37.950;-122.338;2023-07-29T11:18:32;8.48;;;6.00;;
70008;SDS011;59542;37.950;-122.338;2023-07-29T11:21:00;8.80;;;5.82;;
70008;SDS011;59542;37.950;-122.338;2023-07-29T11:23:28;10.75;;;6.07;;
70008;SDS011;59542;37.950;-122.338;2023-07-29T11:25:56;11.10;;;7.00;;
70008;SDS011;59542;37.950;-122.338;2023-07-29T11:28:23;11.00;;;6.45;;
70008;SDS011;59542;37.950;-122.338;2023-07-29T11:30:50;13.73;;;6.22;;
70008;SDS011;59542;37.950;-122.338;2023-07-29T11:33:20;8.98;;;5.57;;
70008;SDS011;59542;37.950;-122.338;2023-07-29T11:35:47;9.85;;;5.85;;
70008;SDS011;59542;37.950;-122.338;2023-07-29T11:38:15;9.52;;;6.00;;
70008;SDS011;59542;37.950;-122.338;2023-07-29T11:40:43;13.10;;;5.50;;
70008;SDS011;59542;37.950;-122.338;2023-07-29T11:43:09;8.98;;;5.68;;
70008;SDS011;59542;37.950;-122.338;2023-07-29T11:45:44;13.90;;;6.28;;
70008;SDS011;59542;37.950;-122.338;2023-07-29T11:48:10;8.70;;;5.55;;
70008;SDS011;59542;37.950;-122.338;2023-07-29T11:50:37;8.80;;;5.75;;
70008;SDS011;59542;37.950;-122.338;2023-07-29T11:53:03;11.63;;;6.15;;
70008;SDS011;59542;37.950;-122.338;2023-07-29T11:55:30;11.35;;;6.03;;
70008;SDS011;59542;37.950;-122.338;2023-07-29T11:57:59;9.80;;;5.88;;
70008;SDS011;59542;37.950;-122.338;2023-07-29T12:00:28;8.93;;;5.40;;
70008;SDS011;59542;37.950;-122.338;2023-07-29T12:02:54;12.43;;;6.15;;
70008;SDS011;59542;37.950;-122.338;2023-07-29T12:05:21;9.35;;;6.18;;
70008;SDS011;59542;37.950;-122.338;2023-07-29T12:07:49;11.23;;;6.03;;
70008;SDS011;59542;37.950;-122.338;2023-07-29T12:10:15;9.18;;;5.38;;
70008;SDS011;59542;37.950;-122.338;2023-07-29T12:12:46;12.00;;;5.88;;
70008;SDS011;59542;37.950;-122.338;2023-07-29T12:15:13;5.93;;;5.15;;
70008;SDS011;59542;37.950;-122.338;2023-07-29T12:17:40;8.27;;;5.10;;
70008;SDS011;59542;37.950;-122.338;2023-07-29T12:20:10;8.68;;;4.90;;
70008;SDS011;59542;37.950;-122.338;2023-07-29T12:22:36;7.60;;;5.05;;
70008;SDS011;59542;37.950;-122.338;2023-07-29T12:25:03;10.25;;;5.20;;
70008;SDS011;59542;37.950;-122.338;2023-07-29T12:27:30;7.97;;;5.65;;
70008;SDS011;59542;37.950;-122.338;2023-07-29T12:29:57;10.18;;;5.65;;
70008;SDS011;59542;37.950;-122.338;2023-07-29T12:32:29;8.88;;;5.57;;
70008;SDS011;59542;37.950;-122.338;2023-07-29T12:34:55;8.98;;;5.30;;
70008;SDS011;59542;37.950;-122.338;2023-07-29T12:37:30;9.13;;;5.20;;
70008;SDS011;59542;37.950;-122.338;2023-07-29T12:39:57;9.25;;;5.38;;
70008;SDS011;59542;37.950;-122.338;2023-07-29T12:42:23;7.90;;;4.88;;
70008;SDS011;59542;37.950;-122.338;2023-07-29T12:44:50;9.38;;;5.10;;
70008;SDS011;59542;37.950;-122.338;2023-07-29T12:47:16;9.68;;;4.68;;
70008;SDS011;59542;37.950;-122.338;2023-07-29T12:49:42;13.10;;;5.90;;
70008;SDS011;59542;37.950;-122.338;2023-07-29T12:52:08;8.52;;;5.55;;
70008;SDS011;59542;37.950;-122.338;2023-07-29T12:54:37;9.93;;;5.53;;
70008;SDS011;59542;37.950;-122.338;2023-07-29T12:57:05;8.60;;;5.78;;
70008;SDS011;59542;37.950;-122.338;2023-07-29T12:59:32;9.07;;;5.45;;
70008;SDS011;59542;37.950;-122.338;2023-07-29T13:01:58;6.30;;;5.05;;
70008;SDS011;59542;37.950;-122.338;2023-07-29T13:04:24;12.13;;;5.75;;
70008;SDS011;59542;37.950;-122.338;2023-07-29T13:06:51;10.20;;;5.68;;
70008;SDS011;59542;37.950;-122.338;2023-07-29T13:09:17;10.43;;;5.90;;
70008;SDS011;59542;37.950;-122.338;2023-07-29T13:11:43;9.00;;;5.78;;
70008;SDS011;59542;37.950;-122.338;2023-07-29T13:14:09;12.00;;;5.93;;
70008;SDS011;59542;37.950;-122.338;2023-07-29T13:16:36;9.88;;;6.60;;
70008;SDS011;59542;37.950;-122.338;2023-07-29T13:19:02;9.70;;;5.50;;
70008;SDS011;59542;37.950;-122.338;2023-07-29T13:21:28;9.63;;;5.90;;
70008;SDS011;59542;37.950;-122.338;2023-07-29T13:23:54;10.45;;;6.18;;
70008;SDS011;59542;37.950;-122.338;2023-07-29T13:26:21;10.27;;;5.43;;
70008;SDS011;59542;37.950;-122.338;2023-07-29T13:28:47;17.73;;;6.00;;
70008;SDS011;59542;37.950;-122.338;2023-07-29T13:31:13;8.52;;;4.90;;
70008;SDS011;59542;37.950;-122.338;2023-07-29T13:33:39;7.40;;;5.20;;
70008;SDS011;59542;37.950;-122.338;2023-07-29T13:36:06;6.18;;;4.32;;
70008;SDS011;59542;37.950;-122.338;2023-07-29T13:38:33;8.63;;;4.70;;
70008;SDS011;59542;37.950;-122.338;2023-07-29T13:40:59;9.00;;;5.38;;
70008;SDS011;59542;37.950;-122.338;2023-07-29T13:43:26;6.65;;;4.80;;
70008;SDS011;59542;37.950;-122.338;2023-07-29T13:45:52;6.78;;;4.43;;
70008;SDS011;59542;37.950;-122.338;2023-07-29T13:48:18;5.93;;;4.03;;
70008;SDS011;59542;37.950;-122.338;2023-07-29T13:50:48;5.53;;;3.88;;
70008;SDS011;59542;37.950;-122.338;2023-07-29T13:53:14;6.32;;;3.95;;
70008;SDS011;59542;37.950;-122.338;2023-07-29T13:55:40;7.75;;;4.07;;
70008;SDS011;59542;37.950;-122.338;2023-07-29T13:58:06;8.40;;;4.90;;
70008;SDS011;59542;37.950;-122.338;2023-07-29T14:00:33;6.45;;;4.38;;
70008;SDS011;59542;37.950;-122.338;2023-07-29T14:02:59;7.68;;;5.35;;
70008;SDS011;59542;37.950;-122.338;2023-07-29T14:05:25;7.28;;;4.70;;
70008;SDS011;59542;37.950;-122.338;2023-07-29T14:07:51;9.95;;;5.70;;
70008;SDS011;59542;37.950;-122.338;2023-07-29T14:10:18;9.13;;;5.93;;
70008;SDS011;59542;37.950;-122.338;2023-07-29T14:12:44;7.28;;;5.40;;
70008;SDS011;59542;37.950;-122.338;2023-07-29T14:15:10;8.65;;;5.10;;